sensor_id;sensor_type;location;lat;lon;timestamp;P1;durP1;ratioP1;P2;durP2;ratioP2
1412;SDS011;701;52.526;13.408;2022-10-31T00:00:22;47.20;;;25.80;;
1412;SDS011;701;52.526;13.408;2022-10-31T00:02:48;49.47;;;26.10;;
1412;SDS011;701;52.526;13.408;2022-10-31T00:05:13;44.50;;;24.97;;
1412;SDS011;701;52.526;13.408;2022-10-31T00:07:39;53.22;;;25.58;;
1412;SDS011;701;52.526;13.408;2022-10-31T00:10:05;48.40;;;25.10;;
1412;SDS011;701;52.526;13.408;2022-10-31T00:12:31;52.25;;;25.63;;
1412;SDS011;701;52.526;13.408;2022-10-31T00:14:57;49.10;;;25.50;;
1412;SDS011;701;52.526;13.408;2022-10-31T00:17:22;56.13;;;26.15;;
1412;SDS011;701;52.526;13.408;2022-10-31T00:19:48;52.10;;;24.83;;
1412;SDS011;701;52.526;13.408;2022-10-31T00:22:14;49.70;;;26.48;;
1412;SDS011;701;52.526;13.408;2022-10-31T00:24:39;48.17;;;25.60;;
1412;SDS011;701;52.526;13.408;2022-10-31T00:27:05;44.63;;;24.13;;
1412;SDS011;701;52.526;13.408;2022-10-31T00:29:31;47.87;;;24.57;;
1412;SDS011;701;52.526;13.408;2022-10-31T00:31:56;49.28;;;24.13;;
1412;SDS011;701;52.526;13.408;2022-10-31T00:34:22;42.55;;;24.33;;
1412;SDS011;701;52.526;13.408;2022-10-31T00:36:48;50.40;;;24.50;;
1412;SDS011;701;52.526;13.408;2022-10-31T00:39:13;43.40;;;24.60;;
1412;SDS011;701;52.526;13.408;2022-10-31T00:41:39;45.93;;;24.00;;
1412;SDS011;701;52.526;13.408;2022-10-31T00:44:11;48.63;;;25.40;;
1412;SDS011;701;52.526;13.408;2022-10-31T00:46:36;41.50;;;24.08;;
1412;SDS011;701;52.526;13.408;2022-10-31T00:49:02;44.63;;;23.23;;
1412;SDS011;701;52.526;13.408;2022-10-31T00:51:28;46.10;;;23.23;;
1412;SDS011;701;52.526;13.408;2022-10-31T00:53:53;45.90;;;23.27;;
1412;SDS011;701;52.526;13.408;2022-10-31T00:56:19;44.47;;;22.67;;
1412;SDS011;701;52.526;13.408;2022-10-31T00:58:45;40.65;;;22.23;;
1412;SDS011;701;52.526;13.408;2022-10-31T01:01:10;40.03;;;23.50;;
1412;SDS011;701;52.526;13.408;2022-10-31T01:03:36;46.97;;;22.63;;
1412;SDS011;701;52.526;13.408;2022-10-31T01:06:08;37.05;;;21.05;;
1412;SDS011;701;52.526;13.408;2022-10-31T01:08:35;43.40;;;20.70;;
1412;SDS011;701;52.526;13.408;2022-10-31T01:11:23;41.70;;;21.35;;
1412;SDS011;701;52.526;13.408;2022-10-31T01:13:52;41.28;;;21.67;;
1412;SDS011;701;52.526;13.408;2022-10-31T01:16:19;36.85;;;20.42;;
1412;SDS011;701;52.526;13.408;2022-10-31T01:18:48;42.33;;;20.10;;
1412;SDS011;701;52.526;13.408;2022-10-31T01:21:15;39.38;;;20.73;;
1412;SDS011;701;52.526;13.408;2022-10-31T01:23:43;42.08;;;20.35;;
1412;SDS011;701;52.526;13.408;2022-10-31T01:28:44;32.25;;;18.85;;
1412;SDS011;701;52.526;13.408;2022-10-31T01:31:15;35.10;;;19.08;;
1412;SDS011;701;52.526;13.408;2022-10-31T01:33:41;38.33;;;20.00;;
1412;SDS011;701;52.526;13.408;2022-10-31T01:36:15;39.67;;;18.70;;
1412;SDS011;701;52.526;13.408;2022-10-31T01:38:42;33.13;;;18.65;;
1412;SDS011;701;52.526;13.408;2022-10-31T01:41:08;35.20;;;18.83;;
1412;SDS011;701;52.526;13.408;2022-10-31T01:43:43;42.22;;;18.15;;
1412;SDS011;701;52.526;13.408;2022-10-31T01:46:11;34.45;;;17.63;;
1412;SDS011;701;52.526;13.408;2022-10-31T01:48:37;39.22;;;17.17;;
1412;SDS011;701;52.526;13.408;2022-10-31T01:51:04;34.57;;;17.90;;
1412;SDS011;701;52.526;13.408;2022-10-31T01:53:31;31.42;;;16.88;;
1412;SDS011;701;52.526;13.408;2022-10-31T01:55:57;40.97;;;17.60;;
1412;SDS011;701;52.526;13.408;2022-10-31T01:58:24;31.20;;;17.35;;
1412;SDS011;701;52.526;13.408;2022-10-31T02:00:57;34.88;;;17.48;;
1412;SDS011;701;52.526;13.408;2022-10-31T02:03:25;41.20;;;17.30;;
1412;SDS011;701;52.526;13.408;2022-10-31T02:05:53;34.15;;;16.15;;
1412;SDS011;701;52.526;13.408;2022-10-31T02:08:28;36.00;;;16.60;;
1412;SDS011;701;52.526;13.408;2022-10-31T02:10:56;30.92;;;16.80;;
1412;SDS011;701;52.526;13.408;2022-10-31T02:13:23;39.63;;;16.42;;
1412;SDS011;701;52.526;13.408;2022-10-31T02:15:51;34.83;;;17.20;;
1412;SDS011;701;52.526;13.408;2022-10-31T02:18:18;27.58;;;16.52;;
1412;SDS011;701;52.526;13.408;2022-10-31T02:37:38;30.98;;;15.73;;
1412;SDS011;701;52.526;13.408;2022-10-31T02:40:31;29.92;;;15.20;;
1412;SDS011;701;52.526;13.408;2022-10-31T02:43:21;32.77;;;15.63;;
1412;SDS011;701;52.526;13.408;2022-10-31T02:48:38;32.15;;;16.27;;
1412;SDS011;701;52.526;13.408;2022-10-31T02:51:07;31.63;;;16.23;;
1412;SDS011;701;52.526;13.408;2022-10-31T02:53:36;38.85;;;16.55;;
1412;SDS011;701;52.526;13.408;2022-10-31T02:56:08;36.43;;;16.23;;
1412;SDS011;701;52.526;13.408;2022-10-31T02:58:40;29.77;;;15.45;;
1412;SDS011;701;52.526;13.408;2022-10-31T03:04:16;30.90;;;15.30;;
1412;SDS011;701;52.526;13.408;2022-10-31T03:09:22;36.73;;;16.70;;
1412;SDS011;701;52.526;13.408;2022-10-31T03:12:01;30.15;;;15.60;;
1412;SDS011;701;52.526;13.408;2022-10-31T03:18:00;41.10;;;15.63;;
1412;SDS011;701;52.526;13.408;2022-10-31T03:20:29;32.58;;;15.15;;
1412;SDS011;701;52.526;13.408;2022-10-31T03:23:14;28.93;;;14.47;;
1412;SDS011;701;52.526;13.408;2022-10-31T03:25:48;29.13;;;15.00;;
1412;SDS011;701;52.526;13.408;2022-10-31T03:28:16;32.33;;;15.57;;
1412;SDS011;701;52.526;13.408;2022-10-31T03:30:49;30.83;;;15.30;;
1412;SDS011;701;52.526;13.408;2022-10-31T03:33:17;27.08;;;15.27;;
1412;SDS011;701;52.526;13.408;2022-10-31T03:35:55;28.70;;;15.07;;
1412;SDS011;701;52.526;13.408;2022-10-31T03:38:22;30.65;;;15.40;;
1412;SDS011;701;52.526;13.408;2022-10-31T03:40:48;31.80;;;15.32;;
1412;SDS011;701;52.526;13.408;2022-10-31T03:43:19;28.70;;;14.25;;
1412;SDS011;701;52.526;13.408;2022-10-31T03:45:51;27.13;;;14.70;;
1412;SDS011;701;52.526;13.408;2022-10-31T03:48:18;29.45;;;14.38;;
1412;SDS011;701;52.526;13.408;2022-10-31T03:53:34;31.10;;;14.20;;
1412;SDS011;701;52.526;13.408;2022-10-31T03:56:07;31.95;;;15.13;;
1412;SDS011;701;52.526;13.408;2022-10-31T03:58:46;27.80;;;14.73;;
1412;SDS011;701;52.526;13.408;2022-10-31T04:01:20;28.23;;;14.38;;
1412;SDS011;701;52.526;13.408;2022-10-31T04:03:48;33.22;;;15.23;;
1412;SDS011;701;52.526;13.408;2022-10-31T04:06:14;35.90;;;14.63;;
1412;SDS011;701;52.526;13.408;2022-10-31T04:08:44;26.30;;;14.27;;
1412;SDS011;701;52.526;13.408;2022-10-31T04:11:28;35.53;;;13.30;;
1412;SDS011;701;52.526;13.408;2022-10-31T04:14:18;26.98;;;13.38;;
1412;SDS011;701;52.526;13.408;2022-10-31T04:16:44;30.13;;;14.50;;
1412;SDS011;701;52.526;13.408;2022-10-31T04:19:11;26.63;;;13.75;;
1412;SDS011;701;52.526;13.408;2022-10-31T04:21:38;30.58;;;14.20;;
1412;SDS011;701;52.526;13.408;2022-10-31T04:24:04;28.73;;;13.90;;
1412;SDS011;701;52.526;13.408;2022-10-31T04:26:31;27.98;;;14.85;;
1412;SDS011;701;52.526;13.408;2022-10-31T04:28:57;28.33;;;14.00;;
1412;SDS011;701;52.526;13.408;2022-10-31T04:31:26;31.70;;;14.35;;
1412;SDS011;701;52.526;13.408;2022-10-31T04:33:52;32.60;;;14.73;;
1412;SDS011;701;52.526;13.408;2022-10-31T04:38:46;32.15;;;14.63;;
1412;SDS011;701;52.526;13.408;2022-10-31T04:41:25;29.93;;;14.73;;
1412;SDS011;701;52.526;13.408;2022-10-31T04:43:56;27.90;;;14.30;;
1412;SDS011;701;52.526;13.408;2022-10-31T04:46:22;29.58;;;13.93;;
1412;SDS011;701;52.526;13.408;2022-10-31T04:48:48;28.30;;;13.60;;
1412;SDS011;701;52.526;13.408;2022-10-31T04:51:14;32.28;;;13.85;;
1412;SDS011;701;52.526;13.408;2022-10-31T04:53:41;24.17;;;14.15;;
1412;SDS011;701;52.526;13.408;2022-10-31T04:56:24;30.73;;;14.07;;
1412;SDS011;701;52.526;13.408;2022-10-31T04:58:56;32.65;;;14.07;;
1412;SDS011;701;52.526;13.408;2022-10-31T05:01:23;30.27;;;13.57;;
1412;SDS011;701;52.526;13.408;2022-10-31T05:03:49;25.60;;;13.13;;
1412;SDS011;701;52.526;13.408;2022-10-31T05:06:15;28.17;;;14.40;;
1412;SDS011;701;52.526;13.408;2022-10-31T05:08:41;29.80;;;14.30;;
1412;SDS011;701;52.526;13.408;2022-10-31T05:11:08;26.20;;;14.43;;
1412;SDS011;701;52.526;13.408;2022-10-31T05:13:35;35.63;;;15.38;;
1412;SDS011;701;52.526;13.408;2022-10-31T05:16:12;31.05;;;14.57;;
1412;SDS011;701;52.526;13.408;2022-10-31T05:18:47;33.65;;;14.57;;
1412;SDS011;701;52.526;13.408;2022-10-31T05:21:31;30.75;;;14.00;;
1412;SDS011;701;52.526;13.408;2022-10-31T05:24:00;25.15;;;14.65;;
1412;SDS011;701;52.526;13.408;2022-10-31T05:26:27;31.63;;;13.90;;
1412;SDS011;701;52.526;13.408;2022-10-31T05:28:53;33.05;;;13.90;;
1412;SDS011;701;52.526;13.408;2022-10-31T05:31:19;27.10;;;13.63;;
1412;SDS011;701;52.526;13.408;2022-10-31T05:33:46;28.40;;;14.20;;
1412;SDS011;701;52.526;13.408;2022-10-31T05:36:41;31.05;;;15.15;;
1412;SDS011;701;52.526;13.408;2022-10-31T05:39:17;28.95;;;13.98;;
1412;SDS011;701;52.526;13.408;2022-10-31T05:41:48;34.20;;;15.97;;
1412;SDS011;701;52.526;13.408;2022-10-31T05:44:19;28.30;;;14.55;;
1412;SDS011;701;52.526;13.408;2022-10-31T05:47:07;29.45;;;14.27;;
1412;SDS011;701;52.526;13.408;2022-10-31T05:49:51;30.25;;;14.13;;
1412;SDS011;701;52.526;13.408;2022-10-31T05:52:37;35.22;;;14.70;;
1412;SDS011;701;52.526;13.408;2022-10-31T05:55:13;32.57;;;14.93;;
1412;SDS011;701;52.526;13.408;2022-10-31T05:57:48;33.08;;;14.77;;
1412;SDS011;701;52.526;13.408;2022-10-31T06:00:15;30.90;;;14.93;;
1412;SDS011;701;52.526;13.408;2022-10-31T06:02:47;33.95;;;15.07;;
1412;SDS011;701;52.526;13.408;2022-10-31T06:05:28;32.67;;;15.40;;
1412;SDS011;701;52.526;13.408;2022-10-31T06:07:54;29.67;;;15.30;;
1412;SDS011;701;52.526;13.408;2022-10-31T06:10:22;35.70;;;16.20;;
1412;SDS011;701;52.526;13.408;2022-10-31T06:12:51;29.10;;;15.70;;
1412;SDS011;701;52.526;13.408;2022-10-31T06:15:28;29.90;;;15.38;;
1412;SDS011;701;52.526;13.408;2022-10-31T06:17:58;33.72;;;14.85;;
1412;SDS011;701;52.526;13.408;2022-10-31T06:20:25;36.90;;;15.97;;
1412;SDS011;701;52.526;13.408;2022-10-31T06:22:57;30.02;;;15.00;;
1412;SDS011;701;52.526;13.408;2022-10-31T06:25:23;35.35;;;15.73;;
1412;SDS011;701;52.526;13.408;2022-10-31T06:27:49;34.38;;;16.50;;
1412;SDS011;701;52.526;13.408;2022-10-31T06:30:15;32.33;;;16.40;;
1412;SDS011;701;52.526;13.408;2022-10-31T06:32:41;32.30;;;16.25;;
1412;SDS011;701;52.526;13.408;2022-10-31T06:35:08;34.92;;;16.33;;
1412;SDS011;701;52.526;13.408;2022-10-31T06:37:35;32.95;;;16.75;;
1412;SDS011;701;52.526;13.408;2022-10-31T06:40:13;28.73;;;16.60;;
1412;SDS011;701;52.526;13.408;2022-10-31T06:43:05;34.57;;;18.00;;
1412;SDS011;701;52.526;13.408;2022-10-31T06:45:32;32.20;;;17.75;;
1412;SDS011;701;52.526;13.408;2022-10-31T06:48:13;36.90;;;19.33;;
1412;SDS011;701;52.526;13.408;2022-10-31T06:50:59;36.65;;;18.00;;
1412;SDS011;701;52.526;13.408;2022-10-31T06:53:28;35.92;;;18.55;;
1412;SDS011;701;52.526;13.408;2022-10-31T06:55:55;43.35;;;18.65;;
1412;SDS011;701;52.526;13.408;2022-10-31T06:58:22;38.47;;;18.63;;
1412;SDS011;701;52.526;13.408;2022-10-31T07:00:49;37.58;;;17.67;;
1412;SDS011;701;52.526;13.408;2022-10-31T07:03:15;38.55;;;17.17;;
1412;SDS011;701;52.526;13.408;2022-10-31T07:05:42;34.08;;;17.17;;
1412;SDS011;701;52.526;13.408;2022-10-31T07:08:12;35.45;;;16.48;;
1412;SDS011;701;52.526;13.408;2022-10-31T07:10:39;36.83;;;17.48;;
1412;SDS011;701;52.526;13.408;2022-10-31T07:13:09;36.42;;;17.92;;
1412;SDS011;701;52.526;13.408;2022-10-31T07:15:37;36.83;;;17.65;;
1412;SDS011;701;52.526;13.408;2022-10-31T07:18:05;35.72;;;19.58;;
1412;SDS011;701;52.526;13.408;2022-10-31T07:20:33;35.17;;;19.57;;
1412;SDS011;701;52.526;13.408;2022-10-31T07:23:01;37.50;;;19.67;;
1412;SDS011;701;52.526;13.408;2022-10-31T07:25:27;37.22;;;19.15;;
1412;SDS011;701;52.526;13.408;2022-10-31T07:28:04;36.53;;;20.33;;
1412;SDS011;701;52.526;13.408;2022-10-31T07:30:30;36.07;;;19.47;;
1412;SDS011;701;52.526;13.408;2022-10-31T07:32:56;39.58;;;20.42;;
1412;SDS011;701;52.526;13.408;2022-10-31T07:35:25;51.85;;;21.00;;
1412;SDS011;701;52.526;13.408;2022-10-31T07:37:56;35.65;;;19.95;;
1412;SDS011;701;52.526;13.408;2022-10-31T07:40:23;43.33;;;20.13;;
1412;SDS011;701;52.526;13.408;2022-10-31T07:42:49;34.47;;;18.80;;
1412;SDS011;701;52.526;13.408;2022-10-31T07:45:36;37.03;;;19.40;;
1412;SDS011;701;52.526;13.408;2022-10-31T07:48:31;35.83;;;18.08;;
1412;SDS011;701;52.526;13.408;2022-10-31T07:51:35;37.75;;;17.52;;
1412;SDS011;701;52.526;13.408;2022-10-31T07:54:19;34.60;;;17.60;;
1412;SDS011;701;52.526;13.408;2022-10-31T07:56:46;47.00;;;17.98;;
1412;SDS011;701;52.526;13.408;2022-10-31T07:59:12;35.40;;;17.58;;
1412;SDS011;701;52.526;13.408;2022-10-31T08:01:39;38.58;;;17.27;;
1412;SDS011;701;52.526;13.408;2022-10-31T08:04:24;41.63;;;15.80;;
1412;SDS011;701;52.526;13.408;2022-10-31T08:07:08;27.40;;;14.73;;
1412;SDS011;701;52.526;13.408;2022-10-31T08:09:36;33.85;;;16.02;;
1412;SDS011;701;52.526;13.408;2022-10-31T08:12:11;30.83;;;14.95;;
1412;SDS011;701;52.526;13.408;2022-10-31T08:14:37;30.47;;;14.50;;
1412;SDS011;701;52.526;13.408;2022-10-31T08:17:02;38.53;;;20.02;;
1412;SDS011;701;52.526;13.408;2022-10-31T08:19:38;35.25;;;15.27;;
1412;SDS011;701;52.526;13.408;2022-10-31T08:22:03;32.80;;;14.03;;
1412;SDS011;701;52.526;13.408;2022-10-31T08:24:30;28.65;;;14.27;;
1412;SDS011;701;52.526;13.408;2022-10-31T08:26:57;31.45;;;14.43;;
1412;SDS011;701;52.526;13.408;2022-10-31T08:29:22;30.80;;;13.60;;
1412;SDS011;701;52.526;13.408;2022-10-31T08:31:50;35.00;;;14.90;;
1412;SDS011;701;52.526;13.408;2022-10-31T08:34:34;30.30;;;15.43;;
1412;SDS011;701;52.526;13.408;2022-10-31T08:37:23;33.28;;;13.98;;
1412;SDS011;701;52.526;13.408;2022-10-31T08:39:52;29.83;;;14.13;;
1412;SDS011;701;52.526;13.408;2022-10-31T08:42:19;35.88;;;14.32;;
1412;SDS011;701;52.526;13.408;2022-10-31T08:44:45;31.65;;;14.95;;
1412;SDS011;701;52.526;13.408;2022-10-31T08:47:11;31.45;;;15.43;;
1412;SDS011;701;52.526;13.408;2022-10-31T08:49:37;31.17;;;15.00;;
1412;SDS011;701;52.526;13.408;2022-10-31T08:52:03;33.10;;;14.90;;
1412;SDS011;701;52.526;13.408;2022-10-31T08:54:33;29.90;;;14.73;;
1412;SDS011;701;52.526;13.408;2022-10-31T08:57:17;30.43;;;15.40;;
1412;SDS011;701;52.526;13.408;2022-10-31T08:59:48;33.15;;;15.43;;
1412;SDS011;701;52.526;13.408;2022-10-31T09:02:16;32.40;;;15.27;;
1412;SDS011;701;52.526;13.408;2022-10-31T09:04:42;31.93;;;14.63;;
1412;SDS011;701;52.526;13.408;2022-10-31T09:07:07;27.02;;;15.55;;
1412;SDS011;701;52.526;13.408;2022-10-31T09:09:33;30.03;;;15.63;;
1412;SDS011;701;52.526;13.408;2022-10-31T09:11:59;30.25;;;15.93;;
1412;SDS011;701;52.526;13.408;2022-10-31T09:14:47;39.15;;;16.38;;
1412;SDS011;701;52.526;13.408;2022-10-31T09:17:22;33.30;;;15.90;;
1412;SDS011;701;52.526;13.408;2022-10-31T09:20:06;36.63;;;15.97;;
1412;SDS011;701;52.526;13.408;2022-10-31T09:22:34;36.63;;;15.80;;
1412;SDS011;701;52.526;13.408;2022-10-31T09:24:59;29.83;;;16.73;;
1412;SDS011;701;52.526;13.408;2022-10-31T09:27:25;36.03;;;16.63;;
1412;SDS011;701;52.526;13.408;2022-10-31T09:29:52;36.22;;;17.25;;
1412;SDS011;701;52.526;13.408;2022-10-31T09:32:18;34.72;;;18.45;;
1412;SDS011;701;52.526;13.408;2022-10-31T09:34:45;44.47;;;20.23;;
1412;SDS011;701;52.526;13.408;2022-10-31T09:37:14;30.80;;;18.35;;
1412;SDS011;701;52.526;13.408;2022-10-31T09:39:40;38.90;;;18.73;;
1412;SDS011;701;52.526;13.408;2022-10-31T09:42:23;42.15;;;20.67;;
1412;SDS011;701;52.526;13.408;2022-10-31T09:53:42;54.72;;;26.65;;
1412;SDS011;701;52.526;13.408;2022-10-31T09:56:17;54.45;;;26.30;;
1412;SDS011;701;52.526;13.408;2022-10-31T09:58:45;46.30;;;25.00;;
1412;SDS011;701;52.526;13.408;2022-10-31T10:01:19;53.90;;;25.58;;
1412;SDS011;701;52.526;13.408;2022-10-31T10:03:54;42.50;;;23.83;;
1412;SDS011;701;52.526;13.408;2022-10-31T10:06:42;45.47;;;23.95;;
1412;SDS011;701;52.526;13.408;2022-10-31T10:09:50;41.25;;;22.35;;
1412;SDS011;701;52.526;13.408;2022-10-31T10:18:03;42.27;;;21.17;;
1412;SDS011;701;52.526;13.408;2022-10-31T10:23:33;44.10;;;22.92;;
1412;SDS011;701;52.526;13.408;2022-10-31T10:28:38;54.35;;;26.23;;
1412;SDS011;701;52.526;13.408;2022-10-31T10:34:18;44.28;;;24.90;;
1412;SDS011;701;52.526;13.408;2022-10-31T10:36:46;50.55;;;25.67;;
1412;SDS011;701;52.526;13.408;2022-10-31T10:39:22;49.78;;;26.27;;
1412;SDS011;701;52.526;13.408;2022-10-31T10:41:52;48.17;;;25.33;;
1412;SDS011;701;52.526;13.408;2022-10-31T10:44:40;48.90;;;24.10;;
1412;SDS011;701;52.526;13.408;2022-10-31T10:47:28;46.63;;;24.77;;
1412;SDS011;701;52.526;13.408;2022-10-31T10:50:06;48.00;;;25.52;;
1412;SDS011;701;52.526;13.408;2022-10-31T10:58:09;43.50;;;20.77;;
1412;SDS011;701;52.526;13.408;2022-10-31T11:00:38;45.90;;;21.48;;
1412;SDS011;701;52.526;13.408;2022-10-31T11:03:04;46.80;;;21.15;;
1412;SDS011;701;52.526;13.408;2022-10-31T11:05:33;41.55;;;20.98;;
1412;SDS011;701;52.526;13.408;2022-10-31T11:08:00;39.30;;;20.92;;
1412;SDS011;701;52.526;13.408;2022-10-31T11:10:26;39.97;;;20.43;;
1412;SDS011;701;52.526;13.408;2022-10-31T11:15:59;43.58;;;22.00;;
1412;SDS011;701;52.526;13.408;2022-10-31T11:18:32;40.20;;;20.67;;
1412;SDS011;701;52.526;13.408;2022-10-31T11:21:02;42.67;;;21.92;;
1412;SDS011;701;52.526;13.408;2022-10-31T11:23:29;40.38;;;20.95;;
1412;SDS011;701;52.526;13.408;2022-10-31T11:25:56;37.22;;;20.63;;
1412;SDS011;701;52.526;13.408;2022-10-31T11:28:31;49.35;;;21.73;;
1412;SDS011;701;52.526;13.408;2022-10-31T11:31:00;43.43;;;20.97;;
1412;SDS011;701;52.526;13.408;2022-10-31T11:33:34;45.65;;;21.70;;
1412;SDS011;701;52.526;13.408;2022-10-31T11:36:13;48.53;;;22.48;;
1412;SDS011;701;52.526;13.408;2022-10-31T11:38:48;49.50;;;22.52;;
1412;SDS011;701;52.526;13.408;2022-10-31T11:43:49;49.57;;;24.03;;
1412;SDS011;701;52.526;13.408;2022-10-31T11:46:21;55.50;;;26.63;;
1412;SDS011;701;52.526;13.408;2022-10-31T11:48:53;49.05;;;23.13;;
1412;SDS011;701;52.526;13.408;2022-10-31T11:51:21;53.78;;;24.65;;
1412;SDS011;701;52.526;13.408;2022-10-31T11:53:51;48.08;;;23.63;;
1412;SDS011;701;52.526;13.408;2022-10-31T11:56:19;46.03;;;24.13;;
1412;SDS011;701;52.526;13.408;2022-10-31T11:58:54;44.80;;;22.13;;
1412;SDS011;701;52.526;13.408;2022-10-31T12:01:28;51.35;;;21.92;;
1412;SDS011;701;52.526;13.408;2022-10-31T12:04:12;42.60;;;22.05;;
1412;SDS011;701;52.526;13.408;2022-10-31T12:06:39;50.83;;;22.37;;
1412;SDS011;701;52.526;13.408;2022-10-31T12:09:23;41.97;;;20.23;;
1412;SDS011;701;52.526;13.408;2022-10-31T12:17:16;47.70;;;22.52;;
1412;SDS011;701;52.526;13.408;2022-10-31T12:20:05;55.10;;;21.13;;
1412;SDS011;701;52.526;13.408;2022-10-31T12:23:15;48.28;;;20.63;;
1412;SDS011;701;52.526;13.408;2022-10-31T12:25:51;43.92;;;20.70;;
1412;SDS011;701;52.526;13.408;2022-10-31T12:31:38;41.25;;;21.80;;
1412;SDS011;701;52.526;13.408;2022-10-31T12:34:40;48.03;;;22.33;;
1412;SDS011;701;52.526;13.408;2022-10-31T12:54:21;39.97;;;20.13;;
1412;SDS011;701;52.526;13.408;2022-10-31T12:59:48;35.92;;;19.85;;
1412;SDS011;701;52.526;13.408;2022-10-31T13:02:22;40.73;;;19.50;;
1412;SDS011;701;52.526;13.408;2022-10-31T13:07:41;41.28;;;19.00;;
1412;SDS011;701;52.526;13.408;2022-10-31T13:10:22;41.05;;;19.95;;
1412;SDS011;701;52.526;13.408;2022-10-31T13:13:00;47.03;;;20.60;;
1412;SDS011;701;52.526;13.408;2022-10-31T13:15:35;43.77;;;19.47;;
1412;SDS011;701;52.526;13.408;2022-10-31T13:18:16;43.45;;;19.63;;
1412;SDS011;701;52.526;13.408;2022-10-31T13:20:53;33.70;;;19.17;;
1412;SDS011;701;52.526;13.408;2022-10-31T13:26:07;40.67;;;19.80;;
1412;SDS011;701;52.526;13.408;2022-10-31T13:31:18;36.40;;;19.25;;
1412;SDS011;701;52.526;13.408;2022-10-31T13:33:53;43.80;;;20.05;;
1412;SDS011;701;52.526;13.408;2022-10-31T13:41:48;38.30;;;19.27;;
1412;SDS011;701;52.526;13.408;2022-10-31T13:44:22;40.53;;;19.27;;
1412;SDS011;701;52.526;13.408;2022-10-31T13:46:49;43.83;;;20.23;;
1412;SDS011;701;52.526;13.408;2022-10-31T13:50:02;37.50;;;18.67;;
1412;SDS011;701;52.526;13.408;2022-10-31T13:52:06;38.38;;;19.13;;
1412;SDS011;701;52.526;13.408;2022-10-31T13:54:37;40.23;;;19.27;;
1412;SDS011;701;52.526;13.408;2022-10-31T13:57:18;40.30;;;19.40;;
1412;SDS011;701;52.526;13.408;2022-10-31T14:00:25;32.88;;;18.52;;
1412;SDS011;701;52.526;13.408;2022-10-31T14:02:52;41.38;;;19.80;;
1412;SDS011;701;52.526;13.408;2022-10-31T14:05:33;43.55;;;19.92;;
1412;SDS011;701;52.526;13.408;2022-10-31T14:08:01;43.17;;;20.07;;
1412;SDS011;701;52.526;13.408;2022-10-31T14:10:35;40.92;;;20.60;;
1412;SDS011;701;52.526;13.408;2022-10-31T14:18:34;44.78;;;23.65;;
1412;SDS011;701;52.526;13.408;2022-10-31T14:23:47;48.72;;;23.30;;
1412;SDS011;701;52.526;13.408;2022-10-31T14:28:51;43.70;;;22.27;;
1412;SDS011;701;52.526;13.408;2022-10-31T14:36:56;46.60;;;23.92;;
1412;SDS011;701;52.526;13.408;2022-10-31T14:39:45;42.58;;;23.63;;
1412;SDS011;701;52.526;13.408;2022-10-31T14:43:02;56.20;;;24.07;;
1412;SDS011;701;52.526;13.408;2022-10-31T14:48:28;50.13;;;25.15;;
1412;SDS011;701;52.526;13.408;2022-10-31T14:51:09;50.05;;;25.02;;
1412;SDS011;701;52.526;13.408;2022-10-31T14:53:50;59.53;;;26.65;;
1412;SDS011;701;52.526;13.408;2022-10-31T14:56:37;51.70;;;24.43;;
1412;SDS011;701;52.526;13.408;2022-10-31T14:59:08;52.22;;;26.30;;
1412;SDS011;701;52.526;13.408;2022-10-31T15:01:38;52.28;;;26.42;;
1412;SDS011;701;52.526;13.408;2022-10-31T15:06:48;56.78;;;26.13;;
1412;SDS011;701;52.526;13.408;2022-10-31T15:09:30;52.63;;;26.10;;
1412;SDS011;701;52.526;13.408;2022-10-31T15:12:16;51.55;;;26.95;;
1412;SDS011;701;52.526;13.408;2022-10-31T15:14:46;54.92;;;27.15;;
1412;SDS011;701;52.526;13.408;2022-10-31T15:17:12;58.90;;;27.17;;
1412;SDS011;701;52.526;13.408;2022-10-31T15:19:38;61.03;;;27.90;;
1412;SDS011;701;52.526;13.408;2022-10-31T15:22:04;59.28;;;28.15;;
1412;SDS011;701;52.526;13.408;2022-10-31T15:24:36;63.92;;;28.50;;
1412;SDS011;701;52.526;13.408;2022-10-31T15:27:03;60.05;;;29.45;;
1412;SDS011;701;52.526;13.408;2022-10-31T15:29:30;58.07;;;28.37;;
1412;SDS011;701;52.526;13.408;2022-10-31T15:31:59;62.97;;;28.75;;
1412;SDS011;701;52.526;13.408;2022-10-31T15:34:38;64.25;;;29.90;;
1412;SDS011;701;52.526;13.408;2022-10-31T15:37:24;64.38;;;27.98;;
1412;SDS011;701;52.526;13.408;2022-10-31T15:39:51;63.67;;;29.13;;
1412;SDS011;701;52.526;13.408;2022-10-31T15:42:28;67.00;;;30.77;;
1412;SDS011;701;52.526;13.408;2022-10-31T15:45:01;63.85;;;30.48;;
1412;SDS011;701;52.526;13.408;2022-10-31T15:47:34;63.33;;;30.13;;
1412;SDS011;701;52.526;13.408;2022-10-31T15:50:01;67.00;;;28.52;;
1412;SDS011;701;52.526;13.408;2022-10-31T15:55:33;64.63;;;28.33;;
1412;SDS011;701;52.526;13.408;2022-10-31T15:57:57;61.90;;;30.65;;
1412;SDS011;701;52.526;13.408;2022-10-31T16:00:30;68.88;;;31.05;;
1412;SDS011;701;52.526;13.408;2022-10-31T16:05:45;61.10;;;29.33;;
1412;SDS011;701;52.526;13.408;2022-10-31T16:11:00;66.43;;;30.50;;
1412;SDS011;701;52.526;13.408;2022-10-31T16:13:41;64.55;;;30.48;;
1412;SDS011;701;52.526;13.408;2022-10-31T16:16:45;63.72;;;29.48;;
1412;SDS011;701;52.526;13.408;2022-10-31T16:21:54;67.87;;;31.00;;
1412;SDS011;701;52.526;13.408;2022-10-31T16:24:46;72.15;;;31.15;;
1412;SDS011;701;52.526;13.408;2022-10-31T16:27:20;65.88;;;31.00;;
1412;SDS011;701;52.526;13.408;2022-10-31T16:29:53;62.85;;;30.05;;
1412;SDS011;701;52.526;13.408;2022-10-31T16:32:51;67.55;;;32.22;;
1412;SDS011;701;52.526;13.408;2022-10-31T16:35:26;64.87;;;31.40;;
1412;SDS011;701;52.526;13.408;2022-10-31T16:37:56;74.22;;;33.00;;
1412;SDS011;701;52.526;13.408;2022-10-31T16:42:57;79.45;;;34.42;;
1412;SDS011;701;52.526;13.408;2022-10-31T16:45:25;72.67;;;33.50;;
1412;SDS011;701;52.526;13.408;2022-10-31T16:47:53;78.93;;;34.30;;
1412;SDS011;701;52.526;13.408;2022-10-31T16:50:26;79.63;;;35.90;;
1412;SDS011;701;52.526;13.408;2022-10-31T16:52:52;82.30;;;33.03;;
1412;SDS011;701;52.526;13.408;2022-10-31T16:55:19;80.97;;;35.15;;
1412;SDS011;701;52.526;13.408;2022-10-31T16:57:55;82.60;;;36.43;;
1412;SDS011;701;52.526;13.408;2022-10-31T17:00:22;79.85;;;33.90;;
1412;SDS011;701;52.526;13.408;2022-10-31T17:02:51;79.10;;;34.60;;
1412;SDS011;701;52.526;13.408;2022-10-31T17:05:18;82.72;;;35.53;;
1412;SDS011;701;52.526;13.408;2022-10-31T17:07:46;88.03;;;40.90;;
1412;SDS011;701;52.526;13.408;2022-10-31T17:10:12;94.77;;;37.50;;
1412;SDS011;701;52.526;13.408;2022-10-31T17:12:40;84.45;;;36.17;;
1412;SDS011;701;52.526;13.408;2022-10-31T17:15:19;87.18;;;37.55;;
1412;SDS011;701;52.526;13.408;2022-10-31T17:17:46;85.75;;;37.03;;
1412;SDS011;701;52.526;13.408;2022-10-31T17:20:23;98.37;;;39.63;;
1412;SDS011;701;52.526;13.408;2022-10-31T17:22:50;82.75;;;37.90;;
1412;SDS011;701;52.526;13.408;2022-10-31T17:25:20;86.72;;;37.10;;
1412;SDS011;701;52.526;13.408;2022-10-31T17:27:49;95.47;;;41.20;;
1412;SDS011;701;52.526;13.408;2022-10-31T17:30:15;102.65;;;40.08;;
1412;SDS011;701;52.526;13.408;2022-10-31T17:32:43;105.23;;;41.03;;
1412;SDS011;701;52.526;13.408;2022-10-31T17:35:10;96.28;;;39.00;;
1412;SDS011;701;52.526;13.408;2022-10-31T17:37:37;105.88;;;40.63;;
1412;SDS011;701;52.526;13.408;2022-10-31T17:40:03;105.70;;;40.60;;
1412;SDS011;701;52.526;13.408;2022-10-31T17:42:29;113.82;;;47.67;;
1412;SDS011;701;52.526;13.408;2022-10-31T17:44:55;98.40;;;39.83;;